Naguabo, PR (00718)

12:33 AM AST on September 17, 2014 (GMT -0400)
Manejo de Emergencias | Change Station
CLOSE
Current Station
Personal Weather Station
Location: Ceiba, PR
Elevation: 95 ft
Nearby Weather Stations

Elev 95 ft 18.26 °N, 65.65 °W | Updated 3 seconds ago

Clear
Clear
77.1 °F
Feels Like 78 °F
N
1.0
Wind Variable Wind from SE
Gusts 3.0 mph

Today
High -- | Low -- °F
--% Chance of Precip.
Yesterday
High -- | Low -- °F
Precip. -- in
6:11 AM 6:23 PM
Last Quarter, 39% visible
Pressure 30.01 in
Visibility 10.0 miles
Clouds Clear
Heat Index 78 °F
Dew Point 74 °F
Humidity 91%
Rainfall -999.00 in
Snow Depth Not available.
UV 0 out of 12
Pollen Not available.
Air Quality Not available.
Flu Activity Not available.
METAR TJNR 170353Z AUTO 09003KT 10SM CLR 27/23 A3001 RMK AO2 SLP162 T02670233 403170233

More Conditions Fewer Conditions

Pressure 30.01 in
Visibility 10.0 miles
Clouds Clear
Heat Index 78 °F
Dew Point 74 °F
Humidity 91%
Rainfall -999.00 in
Snow Depth Not available.
UV 0 out of 12
Pollen Not available.
Air Quality Not available.
Flu Activity Not available.
METAR TJNR 170353Z AUTO 09003KT 10SM CLR 27/23 A3001 RMK AO2 SLP162 T02670233 403170233

More Conditions Fewer Conditions

10-Day Weather Forecast

Almanac

Astronomy

Sep. 17, 2014 Rise Set
Actual Time 6:11 AM AST 6:23 PM AST
Civil Twilight 5:49 AM AST 6:45 PM AST
Nautical Twilight 5:23 AM AST 7:10 PM AST
Astronomical Twilight 4:58 AM AST 7:36 PM AST
Moon 12:42 AM AST 1:56 PM AST
Length of Visible Light 12h 55m
Length of Day
12h 12m
Tomorrow will be 1m 2s shorter.
Last Quarter, 39% of the Moon is Illuminated
Today
Last Quarter
Sep 24
New
Oct 1
First Quarter
Oct 8
Full
Oct 15
Last Quarter

Community

WunderPhotos

Upload Photos

1,753,965 photos uploaded!

Nearby

Snow Depth

Station Depth Elevation
No new snow has been reported.

Earthquake Activity

City Distance Mag. Time & Date
No recent earthquake activity has been reported nearby.
Minimum magnitude displayed is 2.5.

Coastal Water Temperatures

Place Temperature
Yabucoa Harbor, PR 82.9 °F
Esperanza, PR 86.0 °F
Charlotte Amalie, VI 86.0 °F

Nearby Weather Stations